Time;durP1;ratioP1;P1;durP2;ratioP2;P2;SDS_P1;SDS_P2;PMS_P1;PMS_P2;Temp;Humidity;BMP_temperature;BMP_pressure;BME280_temperature;BME280_humidity;BME280_pressure;Samples;Min_cycle;Max_cycle;Signal;HPM_P1;HPM_P2
2022/02/16 00:01:14;;;;;;;9.18;6.38;;;;;;;8.89;100.00;100275.88;5257324;28;20079;-73
2022/02/16 00:03:45;;;;;;;9.73;6.20;;;;;;;8.91;100.00;100266.13;5258702;28;20021;-73
2022/02/16 00:06:17;;;;;;;7.95;6.10;;;;;;;8.92;100.00;100254.72;5258920;28;20116;-73
2022/02/16 00:08:48;;;;;;;8.25;6.28;;;;;;;8.89;100.00;100249.75;5257323;28;20058;-73
2022/02/16 00:11:19;;;;;;;8.63;6.10;;;;;;;8.87;100.00;100235.19;5258934;28;20064;-73
2022/02/16 00:13:51;;;;;;;8.05;6.20;;;;;;;8.87;100.00;100224.75;5257501;28;20036;-74
2022/02/16 00:16:22;;;;;;;10.50;6.25;;;;;;;8.89;100.00;100226.25;5255980;28;20486;-73
2022/02/16 00:18:53;;;;;;;7.38;6.43;;;;;;;8.89;100.00;100218.41;5255774;28;20375;-74
2022/02/16 00:21:24;;;;;;;8.10;6.75;;;;;;;8.87;100.00;100228.19;5255259;28;20029;-74
2022/02/16 00:23:56;;;;;;;9.02;7.05;;;;;;;8.92;100.00;100225.97;5254719;28;20025;-73
2022/02/16 00:26:27;;;;;;;9.20;6.97;;;;;;;8.94;100.00;100226.69;5251988;28;20072;-73
2022/02/16 00:28:58;;;;;;;8.38;6.57;;;;;;;8.95;100.00;100217.88;5255084;28;20033;-74
2022/02/16 00:31:30;;;;;;;7.88;6.00;;;;;;;8.94;100.00;100218.00;5252861;28;20676;-73
2022/02/16 00:34:01;;;;;;;10.65;6.55;;;;;;;8.96;100.00;100218.69;5255366;28;20481;-74
2022/02/16 00:36:33;;;;;;;10.00;6.65;;;;;;;8.92;100.00;100218.16;5255517;28;20440;-74
2022/02/16 00:39:06;;;;;;;7.85;5.93;;;;;;;8.93;100.00;100208.50;5254542;28;20028;-74
2022/02/16 00:41:37;;;;;;;6.13;5.50;;;;;;;8.96;100.00;100201.25;5254908;28;20028;-74
2022/02/16 00:44:08;;;;;;;8.57;6.03;;;;;;;8.97;100.00;100210.72;5255872;28;20299;-74
2022/02/16 00:46:39;;;;;;;7.47;6.38;;;;;;;8.89;100.00;100197.50;5254819;28;20024;-73
2022/02/16 00:49:11;;;;;;;7.70;5.95;;;;;;;8.97;100.00;100200.25;5252858;28;20021;-75
2022/02/16 00:51:44;;;;;;;7.82;6.07;;;;;;;9.01;100.00;100191.19;5253339;28;20037;-74
2022/02/16 00:54:15;;;;;;;10.45;6.88;;;;;;;8.99;100.00;100198.34;5252521;28;20052;-74
2022/02/16 00:56:46;;;;;;;7.95;6.07;;;;;;;9.01;100.00;100185.16;5252621;28;20127;-74
2022/02/16 00:59:18;;;;;;;9.18;6.30;;;;;;;9.04;100.00;100186.66;5255644;28;20040;-73
2022/02/16 01:01:49;;;;;;;10.70;7.38;;;;;;;9.05;100.00;100170.84;5255420;28;20036;-73
2022/02/16 01:04:21;;;;;;;9.88;6.45;;;;;;;9.08;100.00;100172.38;5253756;28;20381;-73
2022/02/16 01:06:53;;;;;;;8.13;6.43;;;;;;;9.09;100.00;100160.94;5254052;28;20029;-75
2022/02/16 01:09:24;;;;;;;8.98;6.18;;;;;;;9.03;100.00;100151.88;5254967;28;20376;-74
2022/02/16 01:11:56;;;;;;;8.20;6.22;;;;;;;9.05;100.00;100156.97;5253103;28;20546;-75
2022/02/16 01:14:28;;;;;;;8.60;6.22;;;;;;;9.01;100.00;100153.78;5253506;28;20098;-74
2022/02/16 01:16:59;;;;;;;9.63;6.45;;;;;;;9.09;100.00;100164.41;5255628;28;20518;-73
2022/02/16 01:19:31;;;;;;;13.27;6.55;;;;;;;9.06;100.00;100151.63;5253400;28;20025;-73
2022/02/16 01:22:02;;;;;;;8.48;5.70;;;;;;;9.09;100.00;100159.19;5252363;28;20516;-73
2022/02/16 01:24:34;;;;;;;7.03;5.45;;;;;;;9.10;100.00;100162.63;5252178;28;20028;-74
2022/02/16 01:27:05;;;;;;;11.02;6.47;;;;;;;9.12;100.00;100150.22;5246533;28;20162;-73
2022/02/16 01:29:36;;;;;;;7.35;5.40;;;;;;;9.11;100.00;100146.78;5254724;28;20839;-75
2022/02/16 01:32:08;;;;;;;6.32;4.78;;;;;;;9.12;100.00;100142.38;5253915;28;20386;-74
2022/02/16 01:34:39;;;;;;;8.35;5.32;;;;;;;9.06;100.00;100143.78;5251599;28;20503;-74
2022/02/16 01:37:10;;;;;;;8.25;5.65;;;;;;;9.14;100.00;100143.91;5255821;28;20049;-75
2022/02/16 01:39:42;;;;;;;9.68;4.90;;;;;;;9.13;100.00;100130.97;5254696;28;20055;-73
2022/02/16 01:42:17;;;;;;;6.15;5.10;;;;;;;9.14;100.00;100123.00;5256258;28;20028;-74
2022/02/16 01:44:49;;;;;;;7.35;5.05;;;;;;;9.13;100.00;100123.13;5256581;28;20120;-74
2022/02/16 01:47:21;;;;;;;7.00;4.50;;;;;;;9.12;100.00;100121.47;5256163;28;20029;-74
2022/02/16 01:49:52;;;;;;;8.10;4.43;;;;;;;9.11;100.00;100125.06;5259657;28;20024;-74
2022/02/16 01:52:23;;;;;;;5.80;4.32;;;;;;;9.11;100.00;100114.63;5258539;28;20029;-73
2022/02/16 01:54:55;;;;;;;7.72;4.82;;;;;;;9.14;100.00;100114.34;5257118;28;20060;-73
2022/02/16 01:57:26;;;;;;;6.35;4.43;;;;;;;9.14;100.00;100114.34;5257484;28;20136;-74
2022/02/16 01:59:58;;;;;;;6.68;4.68;;;;;;;9.13;100.00;100110.06;5256294;28;20033;-74
2022/02/16 02:02:29;;;;;;;5.78;4.30;;;;;;;9.16;100.00;100108.00;5255724;28;20115;-73
2022/02/16 02:05:01;;;;;;;5.93;4.82;;;;;;;9.13;100.00;100089.16;5261532;28;20031;-74
2022/02/16 02:07:34;;;;;;;5.50;4.03;;;;;;;9.16;100.00;100081.03;5257727;28;20028;-74
2022/02/16 02:10:07;;;;;;;5.25;4.05;;;;;;;9.11;100.00;100073.63;5257602;28;20021;-73
2022/02/16 02:12:46;;;;;;;;;;;;;;;9.48;100.00;100065.84;5256610;28;20041;-73
2022/02/16 02:15:21;;;;;;;4.60;3.70;;;;;;;9.21;100.00;100050.09;5255314;28;20377;-74
2022/02/16 02:17:53;;;;;;;8.10;4.65;;;;;;;9.13;100.00;100048.19;5256128;28;20057;-72
2022/02/16 02:20:25;;;;;;;6.32;3.83;;;;;;;9.18;100.00;100045.16;5254670;28;20124;-73
2022/02/16 02:22:57;;;;;;;7.00;3.57;;;;;;;9.15;100.00;100033.19;5257249;28;20025;-73
2022/02/16 02:25:28;;;;;;;4.35;3.55;;;;;;;9.13;100.00;100022.06;5258258;28;20298;-73
2022/02/16 02:28:00;;;;;;;5.35;3.60;;;;;;;9.16;100.00;100032.22;5254235;28;20406;-73
2022/02/16 02:30:31;;;;;;;4.90;3.40;;;;;;;9.16;100.00;100031.38;5254446;28;21066;-73
2022/02/16 02:33:02;;;;;;;3.97;3.25;;;;;;;9.18;100.00;100034.69;5254463;28;20036;-73
2022/02/16 02:35:34;;;;;;;6.10;3.28;;;;;;;9.19;100.00;100029.31;5251139;28;20033;-74
2022/02/16 02:38:06;;;;;;;5.00;3.35;;;;;;;9.21;100.00;100035.25;5256086;28;20493;-73
2022/02/16 02:40:37;;;;;;;5.43;3.28;;;;;;;9.20;100.00;100024.91;5254550;28;20394;-74
2022/02/16 02:43:09;;;;;;;6.43;3.08;;;;;;;9.06;100.00;100007.91;5257638;28;20313;-74
2022/02/16 02:45:40;;;;;;;5.10;2.97;;;;;;;9.22;100.00;100015.97;5254439;28;20070;-74
2022/02/16 02:48:11;;;;;;;4.72;3.13;;;;;;;9.21;100.00;100016.13;5253624;28;20028;-74
2022/02/16 02:50:42;;;;;;;3.70;2.70;;;;;;;9.20;100.00;100011.84;5257091;28;20036;-74
2022/02/16 02:53:14;;;;;;;4.63;3.00;;;;;;;9.21;100.00;100005.69;5252349;28;20020;-72
2022/02/16 02:55:45;;;;;;;4.00;2.97;;;;;;;9.20;100.00;99996.16;5255013;28;20045;-74
2022/02/16 02:58:17;;;;;;;4.43;2.80;;;;;;;9.17;100.00;100002.53;5255474;28;20024;-74
2022/02/16 03:00:48;;;;;;;4.18;2.50;;;;;;;9.22;100.00;100005.53;5257424;28;20021;-73
2022/02/16 03:03:19;;;;;;;5.50;2.63;;;;;;;9.23;100.00;100012.38;5258134;28;20498;-73
2022/02/16 03:05:51;;;;;;;5.15;2.88;;;;;;;9.24;100.00;100002.75;5255662;28;20036;-73
2022/02/16 03:08:22;;;;;;;4.03;2.78;;;;;;;9.22;100.00;100002.91;5256608;28;20025;-74
2022/02/16 03:10:54;;;;;;;3.72;2.75;;;;;;;9.22;100.00;100004.69;5252335;28;20171;-74
2022/02/16 03:13:25;;;;;;;5.53;3.22;;;;;;;9.18;100.00;99998.13;5254203;28;20029;-74
2022/02/16 03:15:57;;;;;;;4.28;3.55;;;;;;;9.15;100.00;99995.78;5255369;28;20081;-74
2022/02/16 03:18:28;;;;;;;6.07;3.78;;;;;;;9.14;100.00;99986.31;5254771;28;20024;-74
2022/02/16 03:20:59;;;;;;;4.97;3.58;;;;;;;9.21;100.00;99984.78;5255733;28;20412;-73
2022/02/16 03:23:31;;;;;;;4.95;3.80;;;;;;;9.20;100.00;99977.88;5254669;28;20445;-74
2022/02/16 03:26:02;;;;;;;5.15;3.78;;;;;;;9.20;100.00;99983.91;5250481;28;20402;-74
2022/02/16 03:28:33;;;;;;;5.70;3.83;;;;;;;9.22;100.00;99975.97;5250186;28;20029;-74
2022/02/16 03:31:05;;;;;;;6.45;4.10;;;;;;;9.20;100.00;99975.25;5255733;28;20029;-73
2022/02/16 03:33:36;;;;;;;5.82;4.35;;;;;;;9.17;100.00;99965.94;5249759;28;20058;-73
2022/02/16 03:36:07;;;;;;;5.97;4.00;;;;;;;9.22;100.00;99963.72;5253515;28;20082;-73
2022/02/16 03:38:38;;;;;;;5.60;3.78;;;;;;;9.24;100.00;99958.31;5256822;28;20366;-73
2022/02/16 03:41:10;;;;;;;5.72;4.13;;;;;;;9.21;100.00;99956.84;5257881;28;20460;-73
2022/02/16 03:43:41;;;;;;;6.13;4.03;;;;;;;9.21;100.00;99946.38;5254687;28;20044;-73
2022/02/16 03:46:12;;;;;;;5.60;3.78;;;;;;;9.21;100.00;99948.19;5253207;28;20068;-73
2022/02/16 03:48:44;;;;;;;6.30;4.45;;;;;;;9.23;100.00;99935.78;5247970;28;20139;-74
2022/02/16 03:51:18;;;;;;;5.72;3.85;;;;;;;9.19;100.00;99932.63;5253935;28;20024;-74
2022/02/16 03:53:50;;;;;;;4.85;3.63;;;;;;;9.21;100.00;99935.13;5253529;28;20032;-73
2022/02/16 03:56:21;;;;;;;5.82;4.20;;;;;;;9.17;100.00;99928.53;5253621;28;20041;-73
2022/02/16 03:58:53;;;;;;;6.03;3.97;;;;;;;9.18;100.00;99920.53;5254059;28;20356;-73
2022/02/16 04:01:24;;;;;;;4.97;3.75;;;;;;;9.17;100.00;99920.69;5254853;28;20623;-73
2022/02/16 04:03:56;;;;;;;5.68;4.15;;;;;;;9.17;100.00;99912.84;5253862;28;20029;-73
2022/02/16 04:06:27;;;;;;;5.75;4.00;;;;;;;9.21;100.00;99907.19;5253677;28;20568;-74
2022/02/16 04:08:58;;;;;;;4.95;4.00;;;;;;;9.20;100.00;99892.44;5254060;28;20191;-74
2022/02/16 04:11:30;;;;;;;5.75;4.15;;;;;;;9.21;100.00;99886.28;5253751;28;20040;-74
2022/02/16 04:14:01;;;;;;;4.95;3.88;;;;;;;9.20;100.00;99875.94;5254249;28;20029;-73
2022/02/16 04:16:32;;;;;;;4.95;4.07;;;;;;;9.20;100.00;99874.16;5253755;28;20116;-73
2022/02/16 04:19:04;;;;;;;5.40;4.07;;;;;;;9.22;100.00;99858.34;5254691;28;20028;-74
2022/02/16 04:21:35;;;;;;;4.50;4.00;;;;;;;9.22;100.00;99840.88;5251989;28;20063;-73
2022/02/16 04:24:09;;;;;;;5.47;4.38;;;;;;;9.25;100.00;99837.97;5254548;28;20059;-74
2022/02/16 04:26:40;;;;;;;4.75;3.47;;;;;;;9.30;100.00;99834.09;5254267;28;20429;-74
2022/02/16 04:29:12;;;;;;;4.70;3.70;;;;;;;9.32;100.00;99833.00;5252732;28;20025;-73
2022/02/16 04:31:43;;;;;;;4.80;3.80;;;;;;;9.27;100.00;99822.94;5252318;28;20033;-73
2022/02/16 04:34:14;;;;;;;4.22;3.80;;;;;;;9.32;100.00;99809.47;5253893;28;20107;-73
2022/02/16 04:36:46;;;;;;;4.50;3.58;;;;;;;9.23;100.00;99800.69;5253963;28;20032;-72
2022/02/16 04:39:17;;;;;;;4.32;3.58;;;;;;;9.25;100.00;99808.41;5254802;28;20071;-73
2022/02/16 04:41:49;;;;;;;4.40;3.00;;;;;;;9.32;100.00;99806.84;5253533;28;20036;-73
2022/02/16 04:44:20;;;;;;;3.35;2.75;;;;;;;9.32;100.00;99801.63;5251567;28;20033;-74
2022/02/16 04:46:51;;;;;;;4.00;2.80;;;;;;;9.35;100.00;99790.84;5253537;28;20451;-75
2022/02/16 04:49:22;;;;;;;3.10;2.70;;;;;;;9.33;100.00;99787.59;5249646;28;20052;-74
2022/02/16 04:51:54;;;;;;;2.70;2.05;;;;;;;9.32;100.00;99788.56;5254468;28;20053;-74
2022/02/16 04:54:25;;;;;;;4.05;2.22;;;;;;;9.35;100.00;99792.66;5255906;28;20498;-73
2022/02/16 04:56:57;;;;;;;2.53;1.90;;;;;;;9.31;100.00;99786.88;5252293;28;20475;-75
2022/02/16 04:59:28;;;;;;;2.30;1.70;;;;;;;9.33;100.00;99773.69;5248041;28;20075;-74
2022/02/16 05:01:59;;;;;;;2.70;1.88;;;;;;;9.34;100.00;99773.53;5251531;28;20024;-75
2022/02/16 05:04:31;;;;;;;2.92;1.92;;;;;;;9.37;100.00;99769.81;5250850;28;20346;-74
2022/02/16 05:07:03;;;;;;;2.15;1.85;;;;;;;9.33;100.00;99758.81;5254364;28;20149;-73
2022/02/16 05:09:34;;;;;;;2.17;1.70;;;;;;;9.36;100.00;99742.84;5254401;28;20127;-73
2022/02/16 05:12:06;;;;;;;3.58;1.58;;;;;;;9.40;100.00;99733.75;5253398;28;20043;-73
2022/02/16 05:14:37;;;;;;;2.90;1.80;;;;;;;9.39;100.00;99739.09;5253614;28;20036;-73
2022/02/16 05:17:09;;;;;;;2.30;1.75;;;;;;;9.35;100.00;99722.06;5253896;28;20085;-74
2022/02/16 05:19:41;;;;;;;2.53;1.90;;;;;;;9.37;100.00;99718.34;5254515;28;20041;-72
2022/02/16 05:22:12;;;;;;;2.33;1.83;;;;;;;9.37;100.00;99714.91;5255895;28;20039;-74
2022/02/16 05:24:43;;;;;;;2.50;2.00;;;;;;;9.41;100.00;99711.84;5257615;28;20025;-73
2022/02/16 05:27:15;;;;;;;3.35;2.17;;;;;;;9.39;100.00;99713.78;5257088;28;20195;-73
2022/02/16 05:29:46;;;;;;;2.67;2.33;;;;;;;9.35;100.00;99701.97;5255977;28;20145;-74
2022/02/16 05:32:17;;;;;;;3.17;2.30;;;;;;;9.41;100.00;99706.63;5256934;28;20116;-73
2022/02/16 05:34:49;;;;;;;2.72;2.05;;;;;;;9.39;100.00;99687.63;5257451;28;20040;-74
2022/02/16 05:37:20;;;;;;;2.40;2.20;;;;;;;9.40;100.00;99689.31;5255901;28;20564;-74
2022/02/16 05:39:51;;;;;;;2.38;2.05;;;;;;;9.38;100.00;99674.72;5257214;28;20040;-72
2022/02/16 05:42:23;;;;;;;2.97;2.47;;;;;;;9.43;100.00;99680.31;5257829;28;20223;-74
2022/02/16 05:44:54;;;;;;;2.50;2.30;;;;;;;9.40;100.00;99678.84;5254498;28;20028;-74
2022/02/16 05:47:25;;;;;;;2.85;2.55;;;;;;;9.40;100.00;99659.72;5255399;28;20416;-73
2022/02/16 05:49:56;;;;;;;3.65;2.20;;;;;;;9.42;100.00;99671.66;5259444;28;20388;-74
2022/02/16 05:52:28;;;;;;;2.80;2.13;;;;;;;9.41;100.00;99661.34;5259836;28;20515;-73
2022/02/16 05:54:59;;;;;;;2.40;2.20;;;;;;;9.45;100.00;99653.06;5260090;28;20033;-74
2022/02/16 05:57:32;;;;;;;3.33;2.17;;;;;;;9.44;100.00;99640.97;5258272;28;20060;-74
2022/02/16 06:00:05;;;;;;;2.70;1.95;;;;;;;9.43;100.00;99623.66;5256732;28;20129;-74
2022/02/16 06:02:37;;;;;;;3.17;2.17;;;;;;;9.45;100.00;99624.31;5259876;28;20395;-74
2022/02/16 06:05:09;;;;;;;3.60;2.17;;;;;;;9.47;100.00;99621.53;5257627;28;20801;-73
2022/02/16 06:07:40;;;;;;;2.83;2.00;;;;;;;9.46;100.00;99609.44;5255532;28;20025;-73
2022/02/16 06:10:11;;;;;;;2.58;1.58;;;;;;;9.51;100.00;99591.50;5258431;28;20040;-73
2022/02/16 06:12:43;;;;;;;3.45;1.90;;;;;;;9.50;100.00;99590.66;5256636;28;20078;-73
2022/02/16 06:15:14;;;;;;;2.95;1.63;;;;;;;9.53;100.00;99586.13;5255010;28;20024;-73
2022/02/16 06:17:46;;;;;;;2.58;1.70;;;;;;;9.57;100.00;99590.88;5256947;28;20290;-73
2022/02/16 06:20:17;;;;;;;2.38;1.80;;;;;;;9.55;100.00;99592.03;5254044;28;20049;-73
2022/02/16 06:22:48;;;;;;;2.22;1.58;;;;;;;9.53;100.00;99589.53;5254258;28;20123;-73
2022/02/16 06:25:21;;;;;;;1.88;1.30;;;;;;;9.54;100.00;99585.13;5254346;28;20048;-73
2022/02/16 06:27:53;;;;;;;1.90;1.50;;;;;;;9.50;100.00;99585.44;5256566;28;20326;-73
2022/02/16 06:30:24;;;;;;;2.55;1.40;;;;;;;9.56;100.00;99584.00;5255600;28;20028;-73
2022/02/16 06:32:55;;;;;;;1.75;1.17;;;;;;;9.61;100.00;99579.13;5256393;28;20036;-73
2022/02/16 06:35:27;;;;;;;1.63;1.20;;;;;;;9.66;100.00;99594.34;5258071;28;20410;-73
2022/02/16 06:37:58;;;;;;;1.55;1.17;;;;;;;9.65;100.00;99579.66;5254099;28;20056;-73
2022/02/16 06:40:29;;;;;;;1.92;1.40;;;;;;;9.67;100.00;99573.28;5257315;28;20033;-73
2022/02/16 06:43:01;;;;;;;1.90;1.27;;;;;;;9.65;100.00;99572.63;5255550;28;20033;-74
2022/02/16 06:45:32;;;;;;;2.42;1.60;;;;;;;9.65;100.00;99572.63;5257322;28;20032;-73
2022/02/16 06:48:04;;;;;;;1.70;1.40;;;;;;;9.68;100.00;99561.03;5258085;28;20033;-73
2022/02/16 06:50:35;;;;;;;2.20;1.40;;;;;;;9.65;100.00;99567.38;5255936;28;20039;-73
2022/02/16 06:53:07;;;;;;;2.30;1.70;;;;;;;9.72;100.00;99575.44;5258879;28;20025;-73
2022/02/16 06:55:38;;;;;;;1.80;1.25;;;;;;;9.78;100.00;99561.75;5256064;28;20053;-73
2022/02/16 06:58:10;;;;;;;1.75;1.35;;;;;;;9.76;100.00;99574.16;5255486;28;20032;-73
2022/02/16 07:00:41;;;;;;;1.83;1.52;;;;;;;9.78;100.00;99561.75;5260049;28;20452;-74
2022/02/16 07:03:13;;;;;;;1.88;1.48;;;;;;;9.81;100.00;99565.81;5261135;28;20029;-74
2022/02/16 07:05:45;;;;;;;2.03;1.60;;;;;;;9.89;100.00;99590.25;5260673;28;20700;-74
2022/02/16 07:08:16;;;;;;;2.25;1.70;;;;;;;9.84;100.00;99571.56;5259873;28;20083;-74
2022/02/16 07:10:47;;;;;;;2.30;2.00;;;;;;;9.82;100.00;99570.09;5260152;28;20028;-73
2022/02/16 07:13:19;;;;;;;2.20;1.98;;;;;;;9.89;100.00;99578.97;5258458;28;20043;-73
2022/02/16 07:15:51;;;;;;;3.92;2.25;;;;;;;9.92;100.00;99578.63;5258530;28;20024;-73
2022/02/16 07:18:22;;;;;;;2.13;1.92;;;;;;;9.96;100.00;99585.19;5256298;28;20470;-73
2022/02/16 07:20:53;;;;;;;2.95;1.83;;;;;;;10.01;100.00;99588.16;5259121;28;20040;-73
2022/02/16 07:23:25;;;;;;;1.90;1.70;;;;;;;10.02;100.00;99604.69;5257884;28;20376;-73
2022/02/16 07:25:57;;;;;;;2.17;1.88;;;;;;;9.97;100.00;99600.75;5260093;28;20306;-73
2022/02/16 07:28:28;;;;;;;2.38;2.17;;;;;;;10.04;100.00;99611.41;5258281;28;20025;-72
2022/02/16 07:30:59;;;;;;;2.38;2.00;;;;;;;10.03;100.00;99599.28;5259595;28;20037;-74
2022/02/16 07:33:31;;;;;;;4.10;2.20;;;;;;;10.11;100.00;99601.13;5259873;28;20508;-73
2022/02/16 07:36:02;;;;;;;2.63;2.05;;;;;;;10.16;100.00;99604.91;5258901;28;20115;-73
2022/02/16 07:38:34;;;;;;;2.60;2.40;;;;;;;10.12;100.00;99603.59;5258777;28;20036;-73
2022/02/16 07:41:06;;;;;;;2.60;2.40;;;;;;;10.10;100.00;99595.06;5255080;28;20031;-74
2022/02/16 07:43:37;;;;;;;3.03;2.65;;;;;;;10.13;100.00;99596.56;5256182;28;20571;-73
2022/02/16 07:46:09;;;;;;;3.10;2.60;;;;;;;10.16;100.00;99588.41;5258361;28;20023;-74
2022/02/16 07:48:40;;;;;;;4.13;2.90;;;;;;;10.16;100.00;99577.94;5259707;28;20032;-73
2022/02/16 07:51:11;;;;;;;2.58;2.38;;;;;;;10.15;100.00;99590.19;5259296;28;20037;-73
2022/02/16 07:53:43;;;;;;;4.80;2.90;;;;;;;10.14;100.00;99575.44;5259186;28;20034;-73
2022/02/16 07:56:14;;;;;;;4.00;2.80;;;;;;;10.26;100.00;99567.34;5260045;28;20405;-73
2022/02/16 07:58:45;;;;;;;4.28;3.00;;;;;;;10.20;100.00;99558.31;5257799;28;20093;-74
2022/02/16 08:01:17;;;;;;;2.65;2.40;;;;;;;10.27;100.00;99582.91;5251301;28;20086;-73
2022/02/16 08:03:48;;;;;;;4.22;3.10;;;;;;;10.37;100.00;99598.47;5259130;28;20052;-74
2022/02/16 08:06:19;;;;;;;3.30;2.85;;;;;;;10.30;100.00;99571.28;5258183;28;20025;-74
2022/02/16 08:08:52;;;;;;;3.22;2.90;;;;;;;10.33;100.00;99587.47;5260016;28;20873;-74
2022/02/16 08:11:23;;;;;;;4.03;2.72;;;;;;;10.38;100.00;99568.69;5257120;28;20060;-74
2022/02/16 08:13:54;;;;;;;3.75;2.72;;;;;;;10.39;100.00;99565.09;5257708;28;20123;-74
2022/02/16 08:16:28;;;;;;;3.58;2.95;;;;;;;10.43;100.00;99576.88;5248111;28;20029;-74
2022/02/16 08:18:59;;;;;;;;;;;;;;;10.72;100.00;99594.78;5249231;28;20111;-75
2022/02/16 08:21:30;;;;;;;3.30;3.00;;;;;;;10.55;100.00;99606.22;5257585;28;20614;-73
2022/02/16 08:24:02;;;;;;;3.97;2.78;;;;;;;10.50;100.00;99618.97;5260028;28;20037;-74
2022/02/16 08:26:34;;;;;;;5.75;3.50;;;;;;;10.52;100.00;99619.63;5256482;28;20086;-73
2022/02/16 08:29:05;;;;;;;3.35;3.05;;;;;;;10.58;100.00;99614.56;5257492;28;20101;-74
2022/02/16 08:31:36;;;;;;;3.28;2.97;;;;;;;10.62;100.00;99613.25;5257132;28;20094;-72
2022/02/16 08:34:09;;;;;;;2.80;2.50;;;;;;;10.61;100.00;99613.44;5257874;28;20158;-74
2022/02/16 08:36:40;;;;;;;3.63;2.30;;;;;;;10.69;100.00;99616.06;5256649;28;20032;-73
2022/02/16 08:39:11;;;;;;;2.50;2.30;;;;;;;10.71;100.00;99619.31;5255701;28;20335;-74
2022/02/16 08:41:43;;;;;;;4.57;2.38;;;;;;;10.80;100.00;99647.19;5254652;28;20332;-73
2022/02/16 08:44:14;;;;;;;2.72;2.10;;;;;;;10.85;100.00;99650.16;5254248;28;20517;-74
2022/02/16 08:46:45;;;;;;;2.45;2.10;;;;;;;10.78;100.00;99637.84;5258334;28;20074;-74
2022/02/16 08:49:17;;;;;;;2.58;2.00;;;;;;;10.87;100.00;99648.19;5258302;28;20032;-74
2022/02/16 08:51:49;;;;;;;2.08;1.80;;;;;;;10.90;100.00;99647.03;5249209;28;20031;-74
2022/02/16 08:54:20;;;;;;;2.40;2.20;;;;;;;10.93;100.00;99634.44;5256866;28;20032;-74
2022/02/16 08:56:52;;;;;;;2.50;1.80;;;;;;;10.93;100.00;99631.00;5244419;28;20215;-74
2022/02/16 08:59:23;;;;;;;2.83;1.80;;;;;;;11.01;100.00;99627.56;5257851;28;20038;-74
2022/02/16 09:01:54;;;;;;;2.45;1.60;;;;;;;10.99;100.00;99625.13;5253535;28;20519;-74
2022/02/16 09:04:25;;;;;;;2.10;1.70;;;;;;;11.00;100.00;99628.56;5255205;28;20067;-74
2022/02/16 09:09:46;;;;;;;2.30;1.90;;;;;;;11.08;100.00;99628.56;5256275;28;20033;-74
2022/02/16 09:12:18;;;;;;;2.20;1.90;;;;;;;11.11;100.00;99629.03;5254299;28;20028;-74
2022/02/16 09:14:49;;;;;;;2.55;1.92;;;;;;;11.11;100.00;99630.84;5255128;28;20084;-74
2022/02/16 09:17:21;;;;;;;2.10;1.73;;;;;;;11.16;100.00;99621.50;5255318;28;20035;-73
2022/02/16 09:19:52;;;;;;;2.15;1.77;;;;;;;11.17;100.00;99635.44;5259578;28;20059;-74
2022/02/16 09:22:25;;;;;;;3.20;1.90;;;;;;;11.21;100.00;99641.97;5258402;28;20036;-73
2022/02/16 09:24:57;;;;;;;2.90;2.22;;;;;;;11.13;100.00;99632.31;5257493;28;20545;-74
2022/02/16 09:27:28;;;;;;;2.78;2.13;;;;;;;11.27;100.00;99657.06;5253587;28;20055;-74
2022/02/16 09:30:00;;;;;;;2.75;2.35;;;;;;;11.28;100.00;99663.13;5249663;28;20044;-74
2022/02/16 09:32:31;;;;;;;2.85;2.60;;;;;;;11.33;100.00;99664.28;5257517;28;20040;-74
2022/02/16 09:35:03;;;;;;;3.15;2.85;;;;;;;11.37;100.00;99681.34;5257304;28;20123;-74
2022/02/16 09:37:35;;;;;;;3.60;2.60;;;;;;;11.35;100.00;99664.94;5254844;28;20033;-74
2022/02/16 09:40:06;;;;;;;3.67;2.97;;;;;;;11.41;100.00;99659.03;5258190;28;20496;-75
2022/02/16 09:42:38;;;;;;;3.25;2.78;;;;;;;11.41;100.00;99666.09;5258425;28;20505;-73
2022/02/16 09:45:13;;;;;;;3.42;3.13;;;;;;;11.45;100.00;99665.59;5258609;28;20037;-73
2022/02/16 09:47:44;;;;;;;4.93;3.50;;;;;;;11.45;100.00;99656.91;5258208;28;20033;-73
2022/02/16 09:50:16;;;;;;;3.53;3.22;;;;;;;11.50;100.00;99656.41;5252714;28;20029;-73
2022/02/16 09:52:47;;;;;;;4.50;4.10;;;;;;;11.53;100.00;99650.84;5257636;28;20037;-73
2022/02/16 09:55:19;;;;;;;4.35;3.95;;;;;;;11.57;100.00;99641.66;5257171;28;20029;-73
2022/02/16 09:57:50;;;;;;;5.18;4.68;;;;;;;11.60;100.00;99644.75;5256544;28;20033;-73
2022/02/16 10:00:22;;;;;;;5.07;4.57;;;;;;;11.63;100.00;99648.84;5255828;28;20490;-73
2022/02/16 10:02:53;;;;;;;5.38;4.88;;;;;;;11.65;100.00;99645.06;5256708;28;20024;-73
2022/02/16 10:05:34;;;;;;;7.53;5.63;;;;;;;11.74;100.00;99656.38;5259598;28;20466;-73
2022/02/16 10:08:08;;;;;;;5.72;5.22;;;;;;;11.72;100.00;99652.28;5260976;28;20174;-74
2022/02/16 10:10:40;;;;;;;5.72;5.22;;;;;;;11.75;100.00;99667.72;5260848;28;20486;-73
2022/02/16 10:13:19;;;;;;;5.68;5.18;;;;;;;11.80;100.00;99649.66;5257479;28;20036;-73
2022/02/16 10:15:51;;;;;;;5.97;5.47;;;;;;;11.79;100.00;99669.81;5257595;28;20540;-72
2022/02/16 10:18:23;;;;;;;6.63;5.95;;;;;;;11.82;100.00;99680.00;5257091;28;20023;-74
2022/02/16 10:21:08;;;;;;;7.07;6.47;;;;;;;11.86;100.00;99681.31;5259066;28;20033;-74
2022/02/16 10:23:45;;;;;;;7.38;6.68;;;;;;;11.91;100.00;99668.50;5260891;28;20477;-73
2022/02/16 10:26:17;;;;;;;7.80;7.00;;;;;;;11.84;100.00;99657.03;5259038;28;20017;-73
2022/02/16 10:28:52;;;;;;;7.90;7.20;;;;;;;11.91;100.00;99641.44;5260672;28;20039;-72
2022/02/16 10:31:24;;;;;;;7.95;7.22;;;;;;;11.93;100.00;99635.06;5260780;28;20434;-74
2022/02/16 10:33:56;;;;;;;8.13;7.38;;;;;;;11.91;100.00;99634.41;5259486;28;20032;-74
2022/02/16 10:36:29;;;;;;;8.43;7.60;;;;;;;11.98;100.00;99647.66;5258756;28;20074;-73
2022/02/16 10:39:06;;;;;;;9.40;8.60;;;;;;;12.06;100.00;99649.44;5258072;28;20603;-73
2022/02/16 10:41:41;;;;;;;9.80;8.85;;;;;;;12.13;100.00;99650.41;5258794;28;20283;-73
2022/02/16 10:44:24;;;;;;;10.25;9.25;;;;;;;12.10;100.00;99646.31;5259616;28;20036;-74
2022/02/16 10:46:59;;;;;;;10.10;9.13;;;;;;;12.11;100.00;99647.94;5260732;28;20028;-74
2022/02/16 10:49:36;;;;;;;10.95;9.95;;;;;;;12.10;100.00;99635.81;5258462;28;20037;-74
2022/02/16 10:52:11;;;;;;;11.68;10.57;;;;;;;12.12;100.00;99625.13;5260948;28;20037;-74
2022/02/16 10:54:59;;;;;;;12.38;10.82;;;;;;;12.16;100.00;99619.38;5259569;28;20509;-74
2022/02/16 10:57:30;;;;;;;11.18;10.07;;;;;;;12.13;100.00;99632.03;5259318;28;20525;-74
2022/02/16 11:00:02;;;;;;;11.10;10.00;;;;;;;12.07;100.00;99611.69;5260854;28;20040;-74
2022/02/16 11:02:35;;;;;;;12.05;10.75;;;;;;;12.11;100.00;99603.31;5258162;28;20163;-74
2022/02/16 11:05:08;;;;;;;13.03;9.43;;;;;;;12.13;100.00;99603.97;5257810;28;20067;-74
2022/02/16 11:07:41;;;;;;;10.38;8.95;;;;;;;12.12;100.00;99617.25;5258319;28;20283;-74
2022/02/16 11:10:12;;;;;;;10.23;9.13;;;;;;;12.18;100.00;99616.59;5256328;28;20029;-73
2022/02/16 11:12:44;;;;;;;11.50;8.90;;;;;;;12.20;100.00;99616.41;5259604;28;20314;-73
2022/02/16 11:15:15;;;;;;;10.20;8.68;;;;;;;12.14;100.00;99607.41;5259061;28;20075;-74
2022/02/16 11:17:47;;;;;;;9.60;8.50;;;;;;;12.22;100.00;99623.13;5257662;28;20044;-73
2022/02/16 11:20:25;;;;;;;10.98;8.85;;;;;;;12.27;100.00;99623.41;5256358;28;20028;-73
2022/02/16 11:23:00;;;;;;;11.10;8.30;;;;;;;12.27;100.00;99628.69;5257550;28;20033;-75
2022/02/16 11:25:32;;;;;;;9.85;8.68;;;;;;;12.27;100.00;99625.22;5255842;28;20390;-74
2022/02/16 11:28:11;;;;;;;10.80;8.23;;;;;;;12.33;100.00;99612.25;5258645;28;20034;-74
2022/02/16 11:30:48;;;;;;;10.27;8.02;;;;;;;12.33;100.00;99611.44;5260584;28;20028;-73
2022/02/16 11:33:24;;;;;;;9.95;8.13;;;;;;;12.38;100.00;99609.91;5258670;28;20036;-74
2022/02/16 11:35:58;;;;;;;10.95;8.07;;;;;;;12.34;100.00;99600.75;5260530;28;20032;-74
2022/02/16 11:38:45;;;;;;;10.20;8.00;;;;;;;12.47;100.00;99599.38;5250611;28;20386;-74
2022/02/16 11:41:25;;;;;;;10.40;7.45;;;;;;;12.48;100.00;99603.66;5260705;28;20700;-75
2022/02/16 11:44:02;;;;;;;9.60;7.63;;;;;;;12.49;100.00;99610.53;5257014;28;20052;-75
2022/02/16 11:46:41;;;;;;;10.63;7.18;;;;;;;12.53;100.00;99598.69;5259360;28;20031;-74
2022/02/16 11:49:28;;;;;;;11.43;7.38;;;;;;;12.63;100.00;99596.66;5251190;28;20028;-75
2022/02/16 11:51:59;;;;;;;10.32;6.95;;;;;;;12.48;100.00;99599.22;5257955;28;20028;-74